Amr Zaki

Chefscout - Al Ahly
4 Jun 2028
Sonntag
Verarbeitung

Persönlichkeit

Anpassungsfähigkeit (9) Ehrgeiz (6) Kontroverse (4) Loyalität (17) Druck (3) Professionalität (7) Fairness (4) Temperament (2)

Profil

Trainerstil Demokratisch
Lizenz Kontinentale B
Entschlossenheit 13
Menschenführung 14
Motivation 14
Disziplin 7
Arbeitszufriedenheit
100%
Ermüdung
0%
Rolle Chefscout
Gehalt 79.6K p/W
Vertrag 14.03.2030

Leistung

Verhalten Gut
Trainingseffektivität
46%
Spielerentwicklung
30%
Verletzungsprävention
35%
Taktische Umsetzung
60%

Letzte Ereignisse

Spieler begutachtet jetzt
Spieler begutachtet jetzt
Spieler begutachtet jetzt

Aktuell beobachtet

127
Spieler Verein Status Fähigkeit Vertrauen Beobachtet Zuletzt beobachtet Letzte Stimme
Tarek Bousseder ES Setif Aktiv 112 / 109 40% 1 03.06.2028 -
Kauã Santos Eintracht Frankfurt Aktiv 152 / 161 40% 1 03.06.2028 -
Ruly Grimsby Town Aktiv 111 / 104 40% 1 03.06.2028 -
Alfie Devine Preston Aktiv 117 / 136 40% 1 03.06.2028 -
Lucas Gourna-Douath Hull City Aktiv 133 / 128 40% 1 03.06.2028 -
Brad Hills Stockport County Aktiv 123 / 127 40% 1 03.06.2028 -
Adrian Šemper Al-Fateh Aktiv 144 / 131 40% 2 01.06.2028 -
Lukas Jensen Millwall Aktiv 128 / 119 40% 1 01.06.2028 -
Balázs Tóth Blackburn Rovers Aktiv 134 / 143 40% 1 01.06.2028 -
Fredrik Sjøvold Bodo/Glimt Aktiv 134 / 156 40% 4 31.01.2028 -
Juan Giménez Athletic Bilbao Aktiv 122 / 133 40% 2 31.01.2028 -
Ali Majrashi Al-Ahli Aktiv 128 / 136 40% 9 31.01.2028 -
Marcelo Allende Mamelodi Sundowns Aktiv 139 / 145 40% 2 31.01.2028 -
Denys Smetana Inhulets Aktiv 96 / 98 40% 2 31.01.2028 -
Filip Reshane Lillestrom Aktiv 104 / 112 40% 1 31.01.2028 -
Gustavo Hamer Sheffield United Aktiv 135 / 156 40% 3 29.01.2028 -
Håkon Evjen Bodo/Glimt Aktiv 133 / 139 40% 1 29.01.2028 -
Ilias Chair Queens Park Rangers Aktiv 137 / 149 40% 1 29.01.2028 -
Jens Petter Hauge Bodo/Glimt Aktiv 144 / 143 40% 5 28.01.2028 -
Bitello Dinamo Moscow Aktiv 145 / 151 40% 1 28.01.2028 -
Alisson Shakhtar Aktiv 150 / 135 40% 1 28.01.2028 -
Alan Lescano Argentinos Juniors Aktiv 142 / 143 40% 3 27.01.2028 -
John Chetauya Elche Aktiv 142 / 130 40% 4 26.01.2028 -
Caio Vidal CSKA Sofia Aktiv 144 / 152 40% 1 26.01.2028 -
Petar Stanić Ludogorets Aktiv 143 / 156 40% 3 25.01.2028 -
Rúben Neves Al-Hilal Aktiv 165 / 158 40% 3 25.01.2028 -
Izan Merino Málaga Aktiv 138 / 123 40% 1 25.01.2028 -
Salem Nader Al Ahli Aktiv 97 / 98 40% 1 24.01.2028 -
Aleksander Wyganowski Legia Aktiv 97 / 123 40% 1 24.01.2028 -
Louka Gautier Chamois Niortais Aktiv 96 / 102 40% 1 23.01.2028 -
Nicolas Sport Recife Aktiv 114 / 96 40% 1 23.01.2028 -
Jens Mathijsen Willem II Aktiv 119 / 109 40% 1 23.01.2028 -
Saeed Abdulrahman Al Shabab Aktiv 96 / 123 40% 3 21.01.2028 -
Lennon Miller Udinese Aktiv 146 / 123 40% 1 21.01.2028 -
Miguel Figueiredo Benfica Aktiv 109 / 133 40% 1 21.01.2028 -
Vinicius Tobias Shakhtar Aktiv 142 / 133 40% 1 16.01.2028 -
Zaydou Youssouf Al-Fateh Aktiv 131 / 130 40% 2 15.01.2028 -
Marlon Gomes Shakhtar Aktiv 137 / 138 40% 3 13.01.2028 -
Jaime Seoane Al-Faisaly Aktiv 133 / 152 40% 2 13.01.2028 -
Musab Al-Juwayr Al-Qadisiyah Aktiv 131 / 130 40% 4 07.01.2028 -
Luciano Juba Bahia Aktiv 125 / 126 40% 1 05.01.2028 -
Souffian El Karouani Al-Qadisiyah Aktiv 128 / 121 40% 1 04.01.2028 -
Vimal Yoganathan Barnsley Aktiv 93 / 106 40% 1 04.01.2028 -
Rafael Vargas Cortulua Aktiv 85 / 89 40% 1 04.01.2028 -
Yusuf Akçiçek Al-Hilal Aktiv 139 / 116 40% 1 02.01.2028 -
Ahmed Nader Hawash ENPPI Aktiv 117 / 109 76% 1 01.01.2028 Befürworten
Sergio Reguilón Inter Miami CF Aktiv 141 / 156 40% 1 30.08.2027 -
Moussa Diaby Al-Ittihad Aktiv 156 / 155 40% 1 28.08.2027 -
Brais Méndez Columbus Crew Aktiv 158 / 137 40% 1 28.08.2027 -
Pedro Malheiro Al Wasl Aktiv 142 / 147 40% 10 27.08.2027 -
Allan Saint-Maximin Charlotte Football Club Aktiv 145 / 139 40% 2 27.08.2027 -
Merlin Röhl Everton Aktiv 144 / 123 40% 1 26.08.2027 -
Patrick Berg Bodo/Glimt Aktiv 144 / 123 40% 17 25.08.2027 -
Kristjan Asllani Inter Aktiv 149 / 165 40% 1 25.08.2027 -
Breel Embolo Los Angeles Football Club Aktiv 134 / 150 40% 1 25.08.2027 -
Matías Palacios Al Ain Aktiv 134 / 137 40% 3 24.08.2027 -
Ângelo Al-Ra'ed Aktiv 143 / 149 40% 1 24.08.2027 -
Momodou Jatta Al Jazira Aktiv 114 / 102 40% 2 23.08.2027 -
Saël Kumbedi VfL Wolfsburg Aktiv 145 / 157 40% 1 23.08.2027 -
Gabriel Pirani San Diego Football Club Aktiv 125 / 118 40% 1 23.08.2027 -
Teo Rodríguez Pagano San Lorenzo Aktiv 112 / 103 40% 1 23.08.2027 -
Alessandro Bianco Modena Aktiv 136 / 117 40% 1 16.08.2027 -
Mehdi Dorval Catanzaro Aktiv 140 / 153 40% 1 15.08.2027 -
Mbekezeli Mbokazi Chicago Fire Aktiv 123 / 116 40% 2 13.08.2027 -
Marius Marin Al Nasr Aktiv 130 / 154 40% 1 13.08.2027 -
Celías Ingenthron Racing Club Aktiv 116 / 128 40% 1 13.08.2027 -
Marquinhos APOEL Aktiv 139 / 143 40% 2 10.08.2027 -
Axel Tape Bayer Leverkusen Aktiv 131 / 145 40% 1 09.08.2027 -
Harley Mills Peterborough United Aktiv 95 / 92 40% 1 09.08.2027 -
Sascha Britschgi Fiorentina Aktiv 124 / 138 40% 1 06.08.2027 -
Abubacarr Sedi Kinteh Al-Ahli Aktiv 133 / 129 40% 1 05.08.2027 -
Egil Selvik Watford Aktiv 131 / 124 40% 2 04.08.2027 -
Chris Brady Chicago Fire Aktiv 134 / 154 40% 1 04.08.2027 -
Juan Moreno Cerro Largo Aktiv 115 / 125 40% 1 03.08.2027 -
Bailey Peacock-Farrell Blackpool Aktiv 100 / 107 40% 1 03.08.2027 -
Emiliano González BATE Aktiv 124 / 136 40% 1 02.08.2027 -
Corey Addai Stockport County Aktiv 115 / 93 40% 1 02.08.2027 -
Jonathan Klinsmann Cesena Aktiv 136 / 119 40% 1 02.08.2027 -
Toni Fruk HNK Rijeka Aktiv 146 / 153 40% 1 01.08.2027 -
Pedrinho Shakhtar Aktiv 131 / 141 40% 4 31.07.2027 -
Yaghoub Barage Persepolis Aktiv 113 / 118 40% 2 29.07.2027 -
Oleksandr Zinchenko Dynamo Kyiv Aktiv 159 / 155 40% 10 29.07.2027 -
Volodymyr Brazhko Dynamo Kyiv Aktiv 143 / 123 40% 1 25.07.2027 -
Dion Beljo Dinamo Zagreb Aktiv 145 / 117 40% 2 23.07.2027 -
Maxence Caqueret Como Aktiv 139 / 143 40% 4 19.07.2027 -
Elie N'Gatta Sochaux Aktiv 95 / 98 40% 1 18.07.2027 -
Quentin Merlin Stade Rennais Aktiv 146 / 135 40% 1 13.07.2027 -
Ezra Mayers West Ham United Aktiv 120 / 140 40% 1 13.07.2027 -
Mauricio Amaro Atlanta United FC Aktiv 123 / 141 40% 1 13.07.2027 -
Djibril Sow Genoa Aktiv 143 / 121 40% 1 11.07.2027 -
Toma Bašić Venezia Aktiv 139 / 128 40% 1 10.07.2027 -
Dinko Horkaš Al Wasl Aktiv 136 / 130 40% 3 09.07.2027 -
Max O'Leary West Bromwich Albion Aktiv 121 / 125 40% 2 09.07.2027 -
Demba Thiam Monza Aktiv 117 / 113 40% 1 08.07.2027 -
Vladan Kovačević Norwich City Aktiv 117 / 122 40% 1 08.07.2027 -
Samu Maccabi Netanya Aktiv 124 / 123 40% 1 06.07.2027 -
Evgeny Staver Rubin Aktiv 121 / 133 40% 1 05.07.2027 -
Alex Bass Peterborough United Aktiv 120 / 133 40% 1 05.07.2027 -
Wilfried Kanga Al-Fateh Aktiv 119 / 101 40% 1 25.06.2027 -
Joel Pereira Reading Aktiv 109 / 104 40% 1 30.01.2027 Mehr Infos nötig
Rustam Yatimov Rostov Aktiv 115 / 102 40% 1 27.01.2027 -
Valentino Lazaro Al Ain Aktiv 144 / 147 40% 12 23.01.2027 -
Lassina Traoré Shakhtar Aktiv 129 / 135 40% 1 19.01.2027 -
Amr Zaki Masr El Makasa Aktiv 109 / 104 76% 1 18.01.2027 Befürworten
Agustín Anello Spartak Moscow Aktiv 115 / 104 40% 1 18.01.2027 -
Sipho Chaine Orlando Pirates Aktiv 118 / 114 40% 1 08.01.2027 -
Maílson Al-Taawoun Aktiv 127 / 138 40% 5 06.01.2027 -
Martin Vantruba Spartak Trnava Aktiv 102 / 106 40% 1 06.01.2027 -
Heorhii Yermakov Metalist Aktiv 126 / 124 40% 1 03.01.2027 -
Osman Hadžikić Honved Aktiv 117 / 95 40% 1 03.01.2027 -
Nikita Kokarev Krylya Sovetov Aktiv 111 / 110 40% 1 28.08.2026 -
Leopold Wahlstedt Rosenborg Aktiv 105 / 114 40% 1 28.08.2026 -
Maclyn Biokpo Jenewari Rivers United Aktiv 99 / 116 40% 1 26.08.2026 -
Svetoslav Vutsov Levski Aktiv 127 / 142 40% 2 19.08.2026 -
Mohanad Ali Dibba Aktiv 116 / 128 40% 1 19.08.2026 -
Albert Amoah Hajer Aktiv 88 / 93 40% 1 19.08.2026 -
Pontus Dahlberg Lillestrom Aktiv 119 / 89 40% 1 19.08.2026 -
Fahad Al-Zubaidi Al-Fateh Aktiv 112 / 122 40% 1 17.08.2026 -
Mateusz Kochalski Qarabag Aktiv 133 / 132 40% 1 14.08.2026 -
Younes El Bahraoui Al-Taawoun Aktiv 117 / 126 40% 1 13.08.2026 -
Dramane Kamagaté USM Alger Aktiv 103 / 103 40% 1 13.08.2026 -
Alexis Guendouz JS Kabylie Aktiv 105 / 107 40% 1 10.08.2026 -
Mahamadou Doumbia Al-Ittihad Aktiv 137 / 128 40% 1 03.08.2026 -
Mohammed Abu Al-Shamat Al-Qadisiyah Aktiv 116 / 140 40% 1 03.08.2026 -
Matheus Gonçalves Al-Ahli Aktiv 123 / 113 40% 1 03.08.2026 -
Visar Bekaj Tirana Aktiv 107 / 103 40% 1 03.08.2026 -
Mohammad Alsalkhadi Damac Aktiv 97 / 127 40% 1 01.08.2026 -